sensor_id;sensor_type;location;lat;lon;timestamp;temperature;humidity
48666;DHT22;34452;50.796;4.994;2022-08-01T00:01:50;21.00;99.90
48666;DHT22;34452;50.796;4.994;2022-08-01T00:04:16;21.00;99.90
48666;DHT22;34452;50.796;4.994;2022-08-01T00:06:42;21.00;99.90
48666;DHT22;34452;50.796;4.994;2022-08-01T00:09:08;21.00;99.90
48666;DHT22;34452;50.796;4.994;2022-08-01T00:11:33;21.00;99.90
48666;DHT22;34452;50.796;4.994;2022-08-01T00:13:59;21.00;99.90
48666;DHT22;34452;50.796;4.994;2022-08-01T00:16:25;21.00;99.90
48666;DHT22;34452;50.796;4.994;2022-08-01T00:18:51;21.00;99.90
48666;DHT22;34452;50.796;4.994;2022-08-01T00:21:17;21.00;99.90
48666;DHT22;34452;50.796;4.994;2022-08-01T00:23:43;21.00;99.90
48666;DHT22;34452;50.796;4.994;2022-08-01T00:26:12;21.00;99.90
48666;DHT22;34452;50.796;4.994;2022-08-01T00:28:38;21.10;99.90
48666;DHT22;34452;50.796;4.994;2022-08-01T00:31:03;21.00;99.90
48666;DHT22;34452;50.796;4.994;2022-08-01T00:33:29;21.00;99.90
48666;DHT22;34452;50.796;4.994;2022-08-01T00:35:55;21.00;99.90
48666;DHT22;34452;50.796;4.994;2022-08-01T00:38:21;21.00;99.90
48666;DHT22;34452;50.796;4.994;2022-08-01T00:40:47;21.00;99.90
48666;DHT22;34452;50.796;4.994;2022-08-01T00:43:13;21.00;99.90
48666;DHT22;34452;50.796;4.994;2022-08-01T00:45:39;21.00;99.90
48666;DHT22;34452;50.796;4.994;2022-08-01T00:48:05;21.00;99.90
48666;DHT22;34452;50.796;4.994;2022-08-01T00:50:30;20.90;99.90
48666;DHT22;34452;50.796;4.994;2022-08-01T00:52:58;20.90;99.90
48666;DHT22;34452;50.796;4.994;2022-08-01T00:55:25;20.90;99.90
48666;DHT22;34452;50.796;4.994;2022-08-01T00:57:51;20.90;99.90
48666;DHT22;34452;50.796;4.994;2022-08-01T01:00:17;20.90;99.90
48666;DHT22;34452;50.796;4.994;2022-08-01T01:02:43;20.90;99.90
48666;DHT22;34452;50.796;4.994;2022-08-01T01:05:09;20.90;99.90
48666;DHT22;34452;50.796;4.994;2022-08-01T01:12:48;20.80;99.90
48666;DHT22;34452;50.796;4.994;2022-08-01T01:26:57;20.50;99.90
48666;DHT22;34452;50.796;4.994;2022-08-01T01:29:28;20.40;99.90
48666;DHT22;34452;50.796;4.994;2022-08-01T01:32:14;20.40;99.90
48666;DHT22;34452;50.796;4.994;2022-08-01T01:34:44;20.40;99.90
48666;DHT22;34452;50.796;4.994;2022-08-01T01:37:15;20.30;99.90
48666;DHT22;34452;50.796;4.994;2022-08-01T01:39:42;20.30;99.90
48666;DHT22;34452;50.796;4.994;2022-08-01T01:42:08;20.30;99.90
48666;DHT22;34452;50.796;4.994;2022-08-01T01:44:35;20.30;99.90
48666;DHT22;34452;50.796;4.994;2022-08-01T01:47:02;20.40;99.90
48666;DHT22;34452;50.796;4.994;2022-08-01T01:49:28;20.30;99.90
48666;DHT22;34452;50.796;4.994;2022-08-01T01:51:57;20.40;99.90
48666;DHT22;34452;50.796;4.994;2022-08-01T01:54:26;20.40;99.90
48666;DHT22;34452;50.796;4.994;2022-08-01T01:56:56;20.40;99.90
48666;DHT22;34452;50.796;4.994;2022-08-01T01:59:26;20.30;99.90
48666;DHT22;34452;50.796;4.994;2022-08-01T02:01:56;20.30;99.90
48666;DHT22;34452;50.796;4.994;2022-08-01T02:04:24;20.20;99.90
48666;DHT22;34452;50.796;4.994;2022-08-01T02:06:52;20.10;99.90
48666;DHT22;34452;50.796;4.994;2022-08-01T02:09:20;20.10;99.90
48666;DHT22;34452;50.796;4.994;2022-08-01T02:11:48;20.10;99.90
48666;DHT22;34452;50.796;4.994;2022-08-01T02:14:16;20.10;99.90
48666;DHT22;34452;50.796;4.994;2022-08-01T02:16:45;20.10;99.90
48666;DHT22;34452;50.796;4.994;2022-08-01T02:19:13;20.10;99.90
48666;DHT22;34452;50.796;4.994;2022-08-01T02:27:15;20.20;99.90
48666;DHT22;34452;50.796;4.994;2022-08-01T02:30:02;20.20;99.90
48666;DHT22;34452;50.796;4.994;2022-08-01T02:32:36;20.30;99.90
48666;DHT22;34452;50.796;4.994;2022-08-01T02:35:05;20.30;99.90
48666;DHT22;34452;50.796;4.994;2022-08-01T02:37:34;20.30;99.90
48666;DHT22;34452;50.796;4.994;2022-08-01T02:40:02;20.30;99.90
48666;DHT22;34452;50.796;4.994;2022-08-01T02:42:29;20.30;99.90
48666;DHT22;34452;50.796;4.994;2022-08-01T02:44:56;20.30;99.90
48666;DHT22;34452;50.796;4.994;2022-08-01T02:47:23;20.30;99.90
48666;DHT22;34452;50.796;4.994;2022-08-01T02:49:52;20.30;99.90
48666;DHT22;34452;50.796;4.994;2022-08-01T02:52:20;20.30;99.90
48666;DHT22;34452;50.796;4.994;2022-08-01T02:54:49;20.30;99.90
48666;DHT22;34452;50.796;4.994;2022-08-01T02:57:16;20.30;99.90
48666;DHT22;34452;50.796;4.994;2022-08-01T02:59:44;20.30;99.90
48666;DHT22;34452;50.796;4.994;2022-08-01T03:02:12;20.30;99.90
48666;DHT22;34452;50.796;4.994;2022-08-01T03:04:39;20.30;99.90
48666;DHT22;34452;50.796;4.994;2022-08-01T03:07:08;20.30;99.90
48666;DHT22;34452;50.796;4.994;2022-08-01T03:09:37;20.40;99.90
48666;DHT22;34452;50.796;4.994;2022-08-01T03:12:08;20.40;99.90
48666;DHT22;34452;50.796;4.994;2022-08-01T03:14:36;20.40;99.90
48666;DHT22;34452;50.796;4.994;2022-08-01T03:17:05;20.40;99.90
48666;DHT22;34452;50.796;4.994;2022-08-01T03:19:31;20.30;99.90
48666;DHT22;34452;50.796;4.994;2022-08-01T03:21:59;20.40;99.90
48666;DHT22;34452;50.796;4.994;2022-08-01T03:24:29;20.30;99.90
48666;DHT22;34452;50.796;4.994;2022-08-01T03:26:56;20.30;99.90
48666;DHT22;34452;50.796;4.994;2022-08-01T03:29:26;20.40;99.90
48666;DHT22;34452;50.796;4.994;2022-08-01T03:31:53;20.30;99.90
48666;DHT22;34452;50.796;4.994;2022-08-01T03:34:18;20.30;99.90
48666;DHT22;34452;50.796;4.994;2022-08-01T03:37:09;20.30;99.90
48666;DHT22;34452;50.796;4.994;2022-08-01T03:39:42;20.30;99.90
48666;DHT22;34452;50.796;4.994;2022-08-01T03:42:15;20.30;99.90
48666;DHT22;34452;50.796;4.994;2022-08-01T03:44:48;20.30;99.90
48666;DHT22;34452;50.796;4.994;2022-08-01T03:47:16;20.40;99.90
48666;DHT22;34452;50.796;4.994;2022-08-01T03:49:44;20.30;99.90
48666;DHT22;34452;50.796;4.994;2022-08-01T03:52:12;20.30;99.90
48666;DHT22;34452;50.796;4.994;2022-08-01T03:54:43;20.30;99.90
48666;DHT22;34452;50.796;4.994;2022-08-01T03:57:11;20.40;99.90
48666;DHT22;34452;50.796;4.994;2022-08-01T03:59:37;20.30;99.90
48666;DHT22;34452;50.796;4.994;2022-08-01T04:02:04;20.30;99.90
48666;DHT22;34452;50.796;4.994;2022-08-01T04:04:31;20.40;99.90
48666;DHT22;34452;50.796;4.994;2022-08-01T04:06:57;20.30;99.90
48666;DHT22;34452;50.796;4.994;2022-08-01T04:09:30;20.30;99.90
48666;DHT22;34452;50.796;4.994;2022-08-01T04:11:57;20.30;99.90
48666;DHT22;34452;50.796;4.994;2022-08-01T04:14:23;20.30;99.90
48666;DHT22;34452;50.796;4.994;2022-08-01T04:16:49;20.30;99.90
48666;DHT22;34452;50.796;4.994;2022-08-01T04:19:15;20.30;99.90
48666;DHT22;34452;50.796;4.994;2022-08-01T04:21:40;20.30;99.90
48666;DHT22;34452;50.796;4.994;2022-08-01T04:24:13;20.30;99.90
48666;DHT22;34452;50.796;4.994;2022-08-01T04:26:41;20.30;99.90
48666;DHT22;34452;50.796;4.994;2022-08-01T04:29:09;20.30;99.90
48666;DHT22;34452;50.796;4.994;2022-08-01T04:31:37;20.30;99.90
48666;DHT22;34452;50.796;4.994;2022-08-01T04:34:05;20.30;99.90
48666;DHT22;34452;50.796;4.994;2022-08-01T04:36:34;20.30;99.90
48666;DHT22;34452;50.796;4.994;2022-08-01T04:39:02;20.30;99.90
48666;DHT22;34452;50.796;4.994;2022-08-01T04:41:30;20.30;99.90
48666;DHT22;34452;50.796;4.994;2022-08-01T04:43:57;20.30;99.90
48666;DHT22;34452;50.796;4.994;2022-08-01T04:46:25;20.30;99.90
48666;DHT22;34452;50.796;4.994;2022-08-01T04:48:51;20.30;99.90
48666;DHT22;34452;50.796;4.994;2022-08-01T04:51:18;20.30;99.90
48666;DHT22;34452;50.796;4.994;2022-08-01T04:53:48;20.30;99.90
48666;DHT22;34452;50.796;4.994;2022-08-01T04:56:15;20.30;99.90
48666;DHT22;34452;50.796;4.994;2022-08-01T04:58:41;20.20;99.90
48666;DHT22;34452;50.796;4.994;2022-08-01T05:01:08;20.10;99.90
48666;DHT22;34452;50.796;4.994;2022-08-01T05:03:34;20.10;99.90
48666;DHT22;34452;50.796;4.994;2022-08-01T05:06:00;20.10;99.90
48666;DHT22;34452;50.796;4.994;2022-08-01T05:08:25;20.10;99.90
48666;DHT22;34452;50.796;4.994;2022-08-01T05:10:51;19.90;99.90
48666;DHT22;34452;50.796;4.994;2022-08-01T05:13:18;19.90;99.90
48666;DHT22;34452;50.796;4.994;2022-08-01T05:15:44;19.90;99.90
48666;DHT22;34452;50.796;4.994;2022-08-01T05:18:10;19.90;99.90
48666;DHT22;34452;50.796;4.994;2022-08-01T05:20:36;19.80;99.90
48666;DHT22;34452;50.796;4.994;2022-08-01T05:23:03;19.80;99.90
48666;DHT22;34452;50.796;4.994;2022-08-01T05:25:28;19.80;99.90
48666;DHT22;34452;50.796;4.994;2022-08-01T05:27:54;19.80;99.90
48666;DHT22;34452;50.796;4.994;2022-08-01T05:30:20;19.70;99.90
48666;DHT22;34452;50.796;4.994;2022-08-01T05:32:45;19.70;99.90
48666;DHT22;34452;50.796;4.994;2022-08-01T05:35:11;19.70;99.90
48666;DHT22;34452;50.796;4.994;2022-08-01T05:37:37;19.60;99.90
48666;DHT22;34452;50.796;4.994;2022-08-01T05:40:03;19.60;99.90
48666;DHT22;34452;50.796;4.994;2022-08-01T05:42:30;19.70;99.90
48666;DHT22;34452;50.796;4.994;2022-08-01T05:44:55;19.70;99.90
48666;DHT22;34452;50.796;4.994;2022-08-01T05:47:21;19.70;99.90
48666;DHT22;34452;50.796;4.994;2022-08-01T05:49:47;19.70;99.90
48666;DHT22;34452;50.796;4.994;2022-08-01T05:52:13;19.60;99.90
48666;DHT22;34452;50.796;4.994;2022-08-01T05:54:39;19.60;99.90
48666;DHT22;34452;50.796;4.994;2022-08-01T05:57:05;19.60;99.90
48666;DHT22;34452;50.796;4.994;2022-08-01T05:59:31;19.60;99.90
48666;DHT22;34452;50.796;4.994;2022-08-01T06:01:57;19.60;99.90
48666;DHT22;34452;50.796;4.994;2022-08-01T06:04:23;19.60;99.90
48666;DHT22;34452;50.796;4.994;2022-08-01T06:06:49;19.60;99.90
48666;DHT22;34452;50.796;4.994;2022-08-01T06:09:15;19.60;99.90
48666;DHT22;34452;50.796;4.994;2022-08-01T06:11:40;19.60;99.90
48666;DHT22;34452;50.796;4.994;2022-08-01T06:14:06;19.70;99.90
48666;DHT22;34452;50.796;4.994;2022-08-01T06:16:32;19.70;99.90
48666;DHT22;34452;50.796;4.994;2022-08-01T06:18:58;19.70;99.90
48666;DHT22;34452;50.796;4.994;2022-08-01T06:21:24;19.80;99.90
48666;DHT22;34452;50.796;4.994;2022-08-01T06:23:50;19.80;99.90
48666;DHT22;34452;50.796;4.994;2022-08-01T06:26:18;19.80;99.90
48666;DHT22;34452;50.796;4.994;2022-08-01T06:28:44;19.80;99.90
48666;DHT22;34452;50.796;4.994;2022-08-01T06:31:10;19.80;99.90
48666;DHT22;34452;50.796;4.994;2022-08-01T06:33:37;19.90;99.90
48666;DHT22;34452;50.796;4.994;2022-08-01T06:36:04;19.90;99.90
48666;DHT22;34452;50.796;4.994;2022-08-01T06:38:29;20.00;99.90
48666;DHT22;34452;50.796;4.994;2022-08-01T06:40:55;20.00;99.90
48666;DHT22;34452;50.796;4.994;2022-08-01T06:43:21;20.10;99.90
48666;DHT22;34452;50.796;4.994;2022-08-01T06:45:47;20.10;99.90
48666;DHT22;34452;50.796;4.994;2022-08-01T06:48:12;20.20;99.90
48666;DHT22;34452;50.796;4.994;2022-08-01T06:50:38;20.30;99.90
48666;DHT22;34452;50.796;4.994;2022-08-01T06:53:04;20.30;99.90
48666;DHT22;34452;50.796;4.994;2022-08-01T06:55:30;20.30;99.90
48666;DHT22;34452;50.796;4.994;2022-08-01T06:57:56;20.40;99.90
48666;DHT22;34452;50.796;4.994;2022-08-01T07:00:23;20.40;99.90
48666;DHT22;34452;50.796;4.994;2022-08-01T07:02:51;20.40;99.90
48666;DHT22;34452;50.796;4.994;2022-08-01T07:05:17;20.40;99.90
48666;DHT22;34452;50.796;4.994;2022-08-01T07:07:43;20.40;99.90
48666;DHT22;34452;50.796;4.994;2022-08-01T07:10:09;20.40;99.90
48666;DHT22;34452;50.796;4.994;2022-08-01T07:12:36;20.40;99.90
48666;DHT22;34452;50.796;4.994;2022-08-01T07:15:05;20.50;99.90
48666;DHT22;34452;50.796;4.994;2022-08-01T07:17:31;20.50;99.90
48666;DHT22;34452;50.796;4.994;2022-08-01T07:19:56;20.60;99.90
48666;DHT22;34452;50.796;4.994;2022-08-01T07:22:22;20.60;99.90
48666;DHT22;34452;50.796;4.994;2022-08-01T07:24:48;20.70;99.90
48666;DHT22;34452;50.796;4.994;2022-08-01T07:27:14;20.70;99.90
48666;DHT22;34452;50.796;4.994;2022-08-01T07:29:39;20.80;99.90
48666;DHT22;34452;50.796;4.994;2022-08-01T07:32:05;20.90;99.90
48666;DHT22;34452;50.796;4.994;2022-08-01T07:34:31;20.90;99.90
48666;DHT22;34452;50.796;4.994;2022-08-01T07:36:57;21.00;99.90
48666;DHT22;34452;50.796;4.994;2022-08-01T07:39:22;21.00;99.90
48666;DHT22;34452;50.796;4.994;2022-08-01T07:41:48;21.00;99.90
48666;DHT22;34452;50.796;4.994;2022-08-01T07:44:14;21.00;99.90
48666;DHT22;34452;50.796;4.994;2022-08-01T07:46:40;21.00;99.90
48666;DHT22;34452;50.796;4.994;2022-08-01T07:49:05;21.00;99.90
48666;DHT22;34452;50.796;4.994;2022-08-01T07:51:31;21.00;99.90
48666;DHT22;34452;50.796;4.994;2022-08-01T07:53:57;21.00;99.90
48666;DHT22;34452;50.796;4.994;2022-08-01T07:56:23;21.00;99.90
48666;DHT22;34452;50.796;4.994;2022-08-01T07:58:49;21.00;99.90
48666;DHT22;34452;50.796;4.994;2022-08-01T08:01:15;21.00;99.90
48666;DHT22;34452;50.796;4.994;2022-08-01T08:03:41;21.00;99.90
48666;DHT22;34452;50.796;4.994;2022-08-01T08:06:07;21.10;99.90
48666;DHT22;34452;50.796;4.994;2022-08-01T08:08:33;21.20;99.90
48666;DHT22;34452;50.796;4.994;2022-08-01T08:11:00;21.20;99.90
48666;DHT22;34452;50.796;4.994;2022-08-01T08:13:26;21.40;99.90
48666;DHT22;34452;50.796;4.994;2022-08-01T08:15:52;21.60;99.90
48666;DHT22;34452;50.796;4.994;2022-08-01T08:18:18;21.80;99.90
48666;DHT22;34452;50.796;4.994;2022-08-01T08:20:44;22.00;99.90
48666;DHT22;34452;50.796;4.994;2022-08-01T08:23:10;22.10;99.90
48666;DHT22;34452;50.796;4.994;2022-08-01T08:25:54;22.10;99.90
48666;DHT22;34452;50.796;4.994;2022-08-01T08:28:20;22.10;99.90
48666;DHT22;34452;50.796;4.994;2022-08-01T08:30:46;22.00;99.90
48666;DHT22;34452;50.796;4.994;2022-08-01T08:33:12;22.10;99.90
48666;DHT22;34452;50.796;4.994;2022-08-01T08:35:40;22.10;99.90
48666;DHT22;34452;50.796;4.994;2022-08-01T08:38:07;22.20;99.90
48666;DHT22;34452;50.796;4.994;2022-08-01T08:40:33;22.30;99.90
48666;DHT22;34452;50.796;4.994;2022-08-01T08:43:00;22.30;99.90
48666;DHT22;34452;50.796;4.994;2022-08-01T08:45:27;22.20;99.90
48666;DHT22;34452;50.796;4.994;2022-08-01T08:47:54;22.30;99.90
48666;DHT22;34452;50.796;4.994;2022-08-01T08:50:21;22.30;99.90
48666;DHT22;34452;50.796;4.994;2022-08-01T08:52:47;22.30;99.90
48666;DHT22;34452;50.796;4.994;2022-08-01T08:55:16;22.30;99.90
48666;DHT22;34452;50.796;4.994;2022-08-01T08:57:43;22.50;99.90
48666;DHT22;34452;50.796;4.994;2022-08-01T09:00:10;22.50;99.90
48666;DHT22;34452;50.796;4.994;2022-08-01T09:02:42;22.50;99.90
48666;DHT22;34452;50.796;4.994;2022-08-01T09:05:09;22.60;99.90
48666;DHT22;34452;50.796;4.994;2022-08-01T09:07:35;22.60;99.90
48666;DHT22;34452;50.796;4.994;2022-08-01T09:10:01;22.70;99.90
48666;DHT22;34452;50.796;4.994;2022-08-01T09:12:27;22.80;99.90
48666;DHT22;34452;50.796;4.994;2022-08-01T09:14:53;22.90;99.90
48666;DHT22;34452;50.796;4.994;2022-08-01T09:17:20;22.80;99.90
48666;DHT22;34452;50.796;4.994;2022-08-01T09:19:47;22.90;99.90
48666;DHT22;34452;50.796;4.994;2022-08-01T09:22:16;22.90;99.90
48666;DHT22;34452;50.796;4.994;2022-08-01T09:24:58;22.80;99.90
48666;DHT22;34452;50.796;4.994;2022-08-01T09:27:24;22.80;99.90
48666;DHT22;34452;50.796;4.994;2022-08-01T09:29:52;22.90;99.90
48666;DHT22;34452;50.796;4.994;2022-08-01T09:32:19;23.00;99.90
48666;DHT22;34452;50.796;4.994;2022-08-01T09:34:45;23.10;99.90
48666;DHT22;34452;50.796;4.994;2022-08-01T09:37:12;23.20;99.90
48666;DHT22;34452;50.796;4.994;2022-08-01T09:39:39;23.30;99.90
48666;DHT22;34452;50.796;4.994;2022-08-01T09:42:19;23.30;99.90
48666;DHT22;34452;50.796;4.994;2022-08-01T09:44:45;23.30;99.90
48666;DHT22;34452;50.796;4.994;2022-08-01T09:47:13;23.30;99.90
48666;DHT22;34452;50.796;4.994;2022-08-01T09:49:40;23.30;99.90
48666;DHT22;34452;50.796;4.994;2022-08-01T09:52:18;23.20;99.90
48666;DHT22;34452;50.796;4.994;2022-08-01T09:54:52;23.20;99.90
48666;DHT22;34452;50.796;4.994;2022-08-01T09:57:19;23.30;99.90
48666;DHT22;34452;50.796;4.994;2022-08-01T09:59:48;23.40;99.90
48666;DHT22;34452;50.796;4.994;2022-08-01T10:05:11;23.60;99.90
48666;DHT22;34452;50.796;4.994;2022-08-01T10:07:56;23.80;99.70
48666;DHT22;34452;50.796;4.994;2022-08-01T10:10:22;23.80;99.20
48666;DHT22;34452;50.796;4.994;2022-08-01T10:12:48;23.80;97.50
48666;DHT22;34452;50.796;4.994;2022-08-01T10:15:17;23.60;96.70
48666;DHT22;34452;50.796;4.994;2022-08-01T10:20:32;23.50;96.10
48666;DHT22;34452;50.796;4.994;2022-08-01T10:23:02;23.70;97.10
48666;DHT22;34452;50.796;4.994;2022-08-01T10:28:17;24.00;96.80
48666;DHT22;34452;50.796;4.994;2022-08-01T10:30:44;24.00;96.40
48666;DHT22;34452;50.796;4.994;2022-08-01T10:33:11;24.00;96.30
48666;DHT22;34452;50.796;4.994;2022-08-01T10:35:38;24.10;95.90
48666;DHT22;34452;50.796;4.994;2022-08-01T10:38:05;24.20;95.50
48666;DHT22;34452;50.796;4.994;2022-08-01T10:40:31;24.10;95.50
48666;DHT22;34452;50.796;4.994;2022-08-01T10:42:58;24.10;95.70
48666;DHT22;34452;50.796;4.994;2022-08-01T10:45:24;24.10;95.30
48666;DHT22;34452;50.796;4.994;2022-08-01T10:48:02;24.10;95.60
48666;DHT22;34452;50.796;4.994;2022-08-01T10:50:42;24.20;96.70
48666;DHT22;34452;50.796;4.994;2022-08-01T10:53:13;24.30;95.50
48666;DHT22;34452;50.796;4.994;2022-08-01T10:58:27;24.50;94.90
48666;DHT22;34452;50.796;4.994;2022-08-01T11:03:38;24.50;93.90
48666;DHT22;34452;50.796;4.994;2022-08-01T11:06:04;24.50;93.80
48666;DHT22;34452;50.796;4.994;2022-08-01T11:08:30;24.50;93.80
48666;DHT22;34452;50.796;4.994;2022-08-01T11:11:17;24.60;93.70
48666;DHT22;34452;50.796;4.994;2022-08-01T11:14:02;24.60;94.20
48666;DHT22;34452;50.796;4.994;2022-08-01T11:16:46;24.70;94.40
48666;DHT22;34452;50.796;4.994;2022-08-01T11:19:12;24.80;94.10
48666;DHT22;34452;50.796;4.994;2022-08-01T11:21:58;24.70;93.50
48666;DHT22;34452;50.796;4.994;2022-08-01T11:27:23;24.80;92.60
48666;DHT22;34452;50.796;4.994;2022-08-01T11:32:47;24.60;92.30
48666;DHT22;34452;50.796;4.994;2022-08-01T11:35:14;24.80;91.90
48666;DHT22;34452;50.796;4.994;2022-08-01T11:37:40;24.90;92.10
48666;DHT22;34452;50.796;4.994;2022-08-01T11:40:25;25.00;91.30
48666;DHT22;34452;50.796;4.994;2022-08-01T11:45:54;25.10;89.00
48666;DHT22;34452;50.796;4.994;2022-08-01T11:48:23;25.20;89.10
48666;DHT22;34452;50.796;4.994;2022-08-01T11:50:50;25.20;90.10
48666;DHT22;34452;50.796;4.994;2022-08-01T11:53:17;25.20;89.80
48666;DHT22;34452;50.796;4.994;2022-08-01T11:55:47;25.20;89.60
48666;DHT22;34452;50.796;4.994;2022-08-01T11:58:16;25.30;89.10
48666;DHT22;34452;50.796;4.994;2022-08-01T12:01:04;25.70;88.70
48666;DHT22;34452;50.796;4.994;2022-08-01T12:03:32;25.90;85.70
48666;DHT22;34452;50.796;4.994;2022-08-01T12:05:58;26.20;86.30
48666;DHT22;34452;50.796;4.994;2022-08-01T12:08:27;26.10;82.10
48666;DHT22;34452;50.796;4.994;2022-08-01T12:10:54;26.00;81.40
48666;DHT22;34452;50.796;4.994;2022-08-01T12:13:20;26.10;81.00
48666;DHT22;34452;50.796;4.994;2022-08-01T12:15:47;26.00;80.40
48666;DHT22;34452;50.796;4.994;2022-08-01T12:18:13;26.00;80.10
48666;DHT22;34452;50.796;4.994;2022-08-01T12:20:39;26.10;78.70
48666;DHT22;34452;50.796;4.994;2022-08-01T12:23:08;26.00;78.80
48666;DHT22;34452;50.796;4.994;2022-08-01T12:25:36;26.10;79.30
48666;DHT22;34452;50.796;4.994;2022-08-01T12:28:04;26.10;79.30
48666;DHT22;34452;50.796;4.994;2022-08-01T12:30:31;26.30;79.10
48666;DHT22;34452;50.796;4.994;2022-08-01T12:33:00;26.30;80.40
48666;DHT22;34452;50.796;4.994;2022-08-01T12:35:28;26.60;78.90
48666;DHT22;34452;50.796;4.994;2022-08-01T12:38:00;26.70;77.00
48666;DHT22;34452;50.796;4.994;2022-08-01T12:40:28;26.60;76.80
48666;DHT22;34452;50.796;4.994;2022-08-01T12:42:58;26.60;76.00
48666;DHT22;34452;50.796;4.994;2022-08-01T12:45:27;26.50;76.10
48666;DHT22;34452;50.796;4.994;2022-08-01T12:47:54;26.70;77.60
48666;DHT22;34452;50.796;4.994;2022-08-01T12:50:22;27.00;75.30
48666;DHT22;34452;50.796;4.994;2022-08-01T12:52:49;26.80;73.70
48666;DHT22;34452;50.796;4.994;2022-08-01T12:55:17;26.40;71.50
48666;DHT22;34452;50.796;4.994;2022-08-01T12:57:45;26.00;71.80
48666;DHT22;34452;50.796;4.994;2022-08-01T13:00:33;26.10;73.30
48666;DHT22;34452;50.796;4.994;2022-08-01T13:03:04;26.40;73.10
48666;DHT22;34452;50.796;4.994;2022-08-01T13:08:30;27.10;70.80
48666;DHT22;34452;50.796;4.994;2022-08-01T13:11:08;26.90;69.60
48666;DHT22;34452;50.796;4.994;2022-08-01T13:13:53;26.60;71.00
48666;DHT22;34452;50.796;4.994;2022-08-01T13:16:22;26.50;71.00
48666;DHT22;34452;50.796;4.994;2022-08-01T13:18:50;26.70;72.30
48666;DHT22;34452;50.796;4.994;2022-08-01T13:21:19;26.90;70.50
48666;DHT22;34452;50.796;4.994;2022-08-01T13:26:46;27.20;65.50
48666;DHT22;34452;50.796;4.994;2022-08-01T13:29:15;27.10;63.70
48666;DHT22;34452;50.796;4.994;2022-08-01T13:31:42;26.80;64.50
48666;DHT22;34452;50.796;4.994;2022-08-01T13:34:09;26.50;65.40
48666;DHT22;34452;50.796;4.994;2022-08-01T13:36:36;26.50;66.10
48666;DHT22;34452;50.796;4.994;2022-08-01T13:39:03;26.50;67.90
48666;DHT22;34452;50.796;4.994;2022-08-01T13:41:48;26.50;66.10
48666;DHT22;34452;50.796;4.994;2022-08-01T13:44:14;26.40;66.50
48666;DHT22;34452;50.796;4.994;2022-08-01T13:46:41;26.60;66.20
48666;DHT22;34452;50.796;4.994;2022-08-01T13:49:08;26.60;66.00
48666;DHT22;34452;50.796;4.994;2022-08-01T13:51:35;26.50;66.50
48666;DHT22;34452;50.796;4.994;2022-08-01T13:54:01;26.60;67.20
48666;DHT22;34452;50.796;4.994;2022-08-01T13:56:28;26.70;66.60
48666;DHT22;34452;50.796;4.994;2022-08-01T13:58:55;26.60;66.80
48666;DHT22;34452;50.796;4.994;2022-08-01T14:01:21;26.40;65.60
48666;DHT22;34452;50.796;4.994;2022-08-01T14:03:47;26.20;64.40
48666;DHT22;34452;50.796;4.994;2022-08-01T14:06:14;26.20;64.60
48666;DHT22;34452;50.796;4.994;2022-08-01T14:08:41;26.10;63.60
48666;DHT22;34452;50.796;4.994;2022-08-01T14:11:07;26.00;63.40
48666;DHT22;34452;50.796;4.994;2022-08-01T14:13:33;26.00;64.80
48666;DHT22;34452;50.796;4.994;2022-08-01T14:15:59;25.80;65.30
48666;DHT22;34452;50.796;4.994;2022-08-01T14:18:25;25.60;65.50
48666;DHT22;34452;50.796;4.994;2022-08-01T14:20:51;25.60;64.50
48666;DHT22;34452;50.796;4.994;2022-08-01T14:23:17;25.70;64.20
48666;DHT22;34452;50.796;4.994;2022-08-01T14:25:43;25.80;64.30
48666;DHT22;34452;50.796;4.994;2022-08-01T14:28:09;25.90;63.00
48666;DHT22;34452;50.796;4.994;2022-08-01T14:30:36;26.50;61.60
48666;DHT22;34452;50.796;4.994;2022-08-01T14:33:02;26.70;60.10
48666;DHT22;34452;50.796;4.994;2022-08-01T14:35:28;26.80;59.00
48666;DHT22;34452;50.796;4.994;2022-08-01T14:37:54;26.80;58.60
48666;DHT22;34452;50.796;4.994;2022-08-01T14:40:19;26.70;58.80
48666;DHT22;34452;50.796;4.994;2022-08-01T14:42:45;26.70;58.50
48666;DHT22;34452;50.796;4.994;2022-08-01T14:45:11;26.40;57.80
48666;DHT22;34452;50.796;4.994;2022-08-01T14:47:39;26.40;58.60
48666;DHT22;34452;50.796;4.994;2022-08-01T14:50:07;26.40;58.50
48666;DHT22;34452;50.796;4.994;2022-08-01T14:52:34;26.40;60.00
48666;DHT22;34452;50.796;4.994;2022-08-01T14:55:00;26.60;61.20
48666;DHT22;34452;50.796;4.994;2022-08-01T14:57:26;26.80;60.70
48666;DHT22;34452;50.796;4.994;2022-08-01T14:59:52;27.10;58.90
48666;DHT22;34452;50.796;4.994;2022-08-01T15:02:18;27.30;57.80
48666;DHT22;34452;50.796;4.994;2022-08-01T15:04:46;27.40;56.60
48666;DHT22;34452;50.796;4.994;2022-08-01T15:07:12;27.40;57.40
48666;DHT22;34452;50.796;4.994;2022-08-01T15:09:38;27.70;56.80
48666;DHT22;34452;50.796;4.994;2022-08-01T15:12:04;28.00;55.00
48666;DHT22;34452;50.796;4.994;2022-08-01T15:14:29;28.00;53.70
48666;DHT22;34452;50.796;4.994;2022-08-01T15:17:16;27.60;54.50
48666;DHT22;34452;50.796;4.994;2022-08-01T15:19:42;27.80;54.00
48666;DHT22;34452;50.796;4.994;2022-08-01T15:22:07;28.10;53.30
48666;DHT22;34452;50.796;4.994;2022-08-01T15:24:33;28.50;52.00
48666;DHT22;34452;50.796;4.994;2022-08-01T15:26:58;28.60;52.10
48666;DHT22;34452;50.796;4.994;2022-08-01T15:29:24;28.80;51.80
48666;DHT22;34452;50.796;4.994;2022-08-01T15:31:50;29.00;50.80
48666;DHT22;34452;50.796;4.994;2022-08-01T15:34:16;29.10;49.80
48666;DHT22;34452;50.796;4.994;2022-08-01T15:36:41;29.40;50.40
48666;DHT22;34452;50.796;4.994;2022-08-01T15:39:09;29.80;48.40
48666;DHT22;34452;50.796;4.994;2022-08-01T15:41:35;30.10;49.00
48666;DHT22;34452;50.796;4.994;2022-08-01T15:44:01;30.50;48.00
48666;DHT22;34452;50.796;4.994;2022-08-01T15:46:26;30.80;46.30
48666;DHT22;34452;50.796;4.994;2022-08-01T15:48:52;31.00;45.50
48666;DHT22;34452;50.796;4.994;2022-08-01T15:51:18;31.40;44.40
48666;DHT22;34452;50.796;4.994;2022-08-01T15:53:44;31.80;44.30
48666;DHT22;34452;50.796;4.994;2022-08-01T15:56:12;31.80;43.30
48666;DHT22;34452;50.796;4.994;2022-08-01T15:58:37;32.10;43.20
48666;DHT22;34452;50.796;4.994;2022-08-01T16:01:03;32.30;42.90
48666;DHT22;34452;50.796;4.994;2022-08-01T16:03:29;32.60;42.30
48666;DHT22;34452;50.796;4.994;2022-08-01T16:05:55;33.10;41.20
48666;DHT22;34452;50.796;4.994;2022-08-01T16:08:21;33.30;40.10
48666;DHT22;34452;50.796;4.994;2022-08-01T16:10:47;33.50;39.70
48666;DHT22;34452;50.796;4.994;2022-08-01T16:13:13;33.70;39.30
48666;DHT22;34452;50.796;4.994;2022-08-01T16:15:39;34.00;38.50
48666;DHT22;34452;50.796;4.994;2022-08-01T16:18:07;33.90;38.30
48666;DHT22;34452;50.796;4.994;2022-08-01T16:20:34;33.60;38.40
48666;DHT22;34452;50.796;4.994;2022-08-01T16:23:00;33.60;38.60
48666;DHT22;34452;50.796;4.994;2022-08-01T16:25:26;33.40;39.20